Time;durP1;ratioP1;P1;durP2;ratioP2;P2;SDS_P1;SDS_P2;PMS_P1;PMS_P2;Temp;Humidity;BMP_temperature;BMP_pressure;BME280_temperature;BME280_humidity;BME280_pressure;Samples;Min_cycle;Max_cycle;Signal;HPM_P1;HPM_P2
2023/02/28 00:01:20;;;;;;;;;11.00;5.33;;;;;-0.48;64.62;99650.25;4800653;29;103997;-68
2023/02/28 00:03:47;;;;;;;;;6.00;5.33;;;;;-0.52;65.22;99654.09;4793984;29;102424;-68
2023/02/28 00:06:14;;;;;;;;;5.67;4.67;;;;;-0.47;64.23;99654.63;4796914;29;102422;-68
2023/02/28 00:08:41;;;;;;;;;5.00;4.33;;;;;-0.49;64.54;99654.72;4791415;29;102639;-68
2023/02/28 00:11:11;;;;;;;;;6.33;4.00;;;;;-0.46;63.02;99656.34;4797369;29;104378;-68
2023/02/28 00:13:46;;;;;;;;;10.25;8.00;;;;;-0.59;65.43;99659.00;4801129;29;102375;-68
2023/02/28 00:16:19;;;;;;;;;10.67;7.33;;;;;-0.64;66.15;99657.59;4797443;29;102322;-68
2023/02/28 00:18:47;;;;;;;;;8.00;6.00;;;;;-0.59;63.48;99653.69;4800042;29;105533;-68
2023/02/28 00:21:16;;;;;;;;;8.00;7.33;;;;;-0.71;64.10;99638.56;4800546;29;104018;-68
2023/02/28 00:23:43;;;;;;;;;5.33;4.00;;;;;-0.59;62.06;99653.69;4795799;29;102665;-68
2023/02/28 00:26:10;;;;;;;;;1.00;1.00;;;;;-0.58;62.92;99655.34;4788698;29;102371;-68
2023/02/28 00:28:37;;;;;;;;;1.67;1.33;;;;;-0.65;65.68;99648.78;4792524;29;102636;-68
2023/02/28 00:31:04;;;;;;;;;5.00;4.00;;;;;-0.79;66.46;99655.97;4796253;29;104055;-68
2023/02/28 00:33:31;;;;;;;;;4.00;4.00;;;;;-0.77;63.26;99648.75;4798523;29;102206;-68
2023/02/28 00:36:04;;;;;;;;;4.00;2.67;;;;;-0.87;65.13;99637.06;4802135;29;102316;-69
2023/02/28 00:38:31;;;;;;;;;4.00;2.00;;;;;-0.88;64.70;99660.09;4796501;29;103091;-69
2023/02/28 00:41:04;;;;;;;;;1.00;1.00;;;;;-0.92;66.75;99661.25;4787501;29;103579;-68
2023/02/28 00:43:36;;;;;;;;;7.00;5.00;;;;;-0.99;65.08;99660.81;4791358;29;102173;-68
2023/02/28 00:46:04;;;;;;;;;9.67;5.67;;;;;-1.04;64.79;99654.13;4798818;29;102586;-68
2023/02/28 00:48:31;;;;;;;;;5.00;4.33;;;;;-1.11;66.67;99658.13;4800452;29;102128;-69
2023/02/28 00:50:58;;;;;;;;;12.33;4.00;;;;;-1.15;65.65;99654.84;4794657;29;103977;-68
2023/02/28 00:53:25;;;;;;;;;4.00;2.00;;;;;-1.15;66.05;99664.59;4798755;29;102533;-67
2023/02/28 00:55:53;;;;;;;;;2.00;2.00;;;;;-1.18;66.64;99665.66;4794331;29;102380;-69
2023/02/28 00:58:20;;;;;;;;;1.00;1.00;;;;;-1.44;67.62;99632.03;4797119;29;102684;-69
2023/02/28 01:00:48;;;;;;;;;3.33;1.00;;;;;-1.21;69.59;99676.44;4798347;29;103976;-67
2023/02/28 01:03:18;;;;;;;;;1.00;1.00;;;;;-1.24;69.78;99676.66;4796613;29;102542;-67
2023/02/28 01:05:46;;;;;;;;;4.00;1.00;;;;;-1.37;67.92;99675.78;4797024;29;102647;-68
2023/02/28 01:08:14;;;;;;;;;4.00;3.33;;;;;-1.68;67.70;99633.63;4798303;29;102411;-68
2023/02/28 01:10:42;;;;;;;;;2.67;1.00;;;;;-1.57;68.41;99655.84;4790119;29;104130;-68
2023/02/28 01:13:09;;;;;;;;;2.00;2.00;;;;;-1.47;69.86;99675.50;4796394;29;102139;-67
2023/02/28 01:15:36;;;;;;;;;1.00;1.00;;;;;-1.62;72.84;99651.81;4792646;29;102592;-68
2023/02/28 01:18:03;;;;;;;;;1.00;1.00;;;;;-1.54;71.05;99665.41;4794557;29;102427;-69
2023/02/28 01:20:30;;;;;;;;;4.00;2.00;;;;;-1.63;70.62;99663.34;4797241;29;104429;-68
2023/02/28 01:22:57;;;;;;;;;4.00;4.00;;;;;-1.64;70.81;99666.94;4783885;29;104014;-68
2023/02/28 01:25:24;;;;;;;;;2.67;2.00;;;;;-1.66;70.05;99666.19;4797785;29;102324;-68
2023/02/28 01:27:52;;;;;;;;;2.00;2.00;;;;;-1.73;72.77;99664.88;4801429;29;102580;-68
2023/02/28 01:30:19;;;;;;;;;2.00;2.00;;;;;-1.74;73.44;99663.16;4797404;29;103998;-68
2023/02/28 01:32:46;;;;;;;;;2.00;1.00;;;;;-1.80;73.47;99661.75;4795044;29;102306;-67
2023/02/28 01:35:13;;;;;;;;;1.00;1.00;;;;;-1.80;71.44;99654.66;4793084;29;102176;-68
2023/02/28 01:37:39;;;;;;;;;2.67;2.00;;;;;-1.86;70.15;99647.13;4793112;29;102316;-67
2023/02/28 01:40:07;;;;;;;;;2.67;2.00;;;;;-1.82;71.39;99656.56;4795067;29;105018;-68
2023/02/28 01:42:34;;;;;;;;;1.00;1.00;;;;;-1.84;72.72;99661.09;4789712;29;102196;-67
2023/02/28 01:45:19;;;;;;;;;4.00;2.00;;;;;-1.86;73.08;99654.22;4786260;29;102402;-67
2023/02/28 01:47:50;;;;;;;;;4.33;4.00;;;;;-1.92;72.93;99652.78;4797333;29;102436;-68
2023/02/28 01:50:21;;;;;;;;;4.00;4.00;;;;;-1.97;72.79;99660.19;4798869;29;104164;-68
2023/02/28 01:52:51;;;;;;;;;4.00;3.33;;;;;-2.01;72.19;99658.69;4796719;29;102411;-67
2023/02/28 01:55:21;;;;;;;;;18.00;14.67;;;;;-2.14;73.17;99656.88;4796125;29;101907;-67
2023/02/28 01:57:56;;;;;;;;;26.00;19.33;;;;;-2.26;75.33;99658.50;4792761;29;110345;-67
2023/02/28 02:00:27;;;;;;;;;17.67;14.00;;;;;-2.25;75.99;99654.91;4785631;29;111610;-67
2023/02/28 02:02:58;;;;;;;;;23.33;18.67;;;;;-2.31;75.66;99657.94;4795520;29;102656;-68
2023/02/28 02:05:30;;;;;;;;;25.67;17.67;;;;;-2.35;76.47;99653.78;4796308;29;102114;-68
2023/02/28 02:08:11;;;;;;;;;24.33;20.00;;;;;-2.52;75.69;99635.44;4794535;29;102159;-67
2023/02/28 02:10:57;;;;;;;;;18.33;15.33;;;;;-2.42;75.49;99655.09;4795339;29;108778;-67
2023/02/28 02:13:46;;;;;;;;;17.00;13.67;;;;;-2.49;75.81;99641.38;4794648;29;102559;-67
2023/02/28 02:16:53;;;;;;;;;21.00;17.33;;;;;-2.57;75.35;99642.81;4793816;29;102514;-67
2023/02/28 02:19:52;;;;;;;;;30.33;22.33;;;;;-2.60;76.34;99649.13;4796013;29;102103;-67
2023/02/28 02:23:08;;;;;;;;;23.00;16.00;;;;;-2.65;79.23;99645.03;4779750;29;107757;-67
2023/02/28 02:25:52;;;;;;;;;16.00;13.67;;;;;-2.72;77.43;99634.84;4797270;29;102381;-68
2023/02/28 02:29:06;;;;;;;;;18.33;15.33;;;;;-2.66;77.40;99649.50;4798506;29;103030;-68
2023/02/28 02:31:43;;;;;;;;;16.67;13.00;;;;;-2.88;79.84;99623.47;4744828;29;102193;-68
2023/02/28 02:34:41;;;;;;;;;25.33;14.00;;;;;-2.75;80.07;99644.78;4795061;29;104129;-68
2023/02/28 02:37:34;;;;;;;;;19.67;19.00;;;;;-2.81;80.44;99645.97;4793668;29;102463;-68
2023/02/28 02:40:11;;;;;;;;;20.67;18.67;;;;;-2.80;78.49;99647.69;4794722;29;102071;-68
2023/02/28 02:42:48;;;;;;;;;18.33;15.33;;;;;-2.82;80.39;99638.97;4789645;29;102219;-67
2023/02/28 02:45:37;;;;;;;;;23.00;16.67;;;;;-2.86;79.52;99648.06;4794190;29;104159;-67
2023/02/28 02:48:12;;;;;;;;;22.00;19.00;;;;;-2.87;79.63;99643.69;4791998;29;102575;-68
2023/02/28 02:50:52;;;;;;;;;32.67;28.00;;;;;-2.90;78.94;99640.38;4800094;29;101879;-68
2023/02/28 02:53:29;;;;;;;;;30.00;21.33;;;;;-2.94;79.46;99628.28;4798653;29;102416;-68
2023/02/28 02:55:59;;;;;;;;;25.33;18.67;;;;;-2.92;79.44;99637.81;4798115;29;108867;-68
2023/02/28 02:58:32;;;;;;;;;26.67;21.00;;;;;-2.93;81.19;99630.00;4797789;29;102451;-67
2023/02/28 03:01:03;;;;;;;;;24.67;22.33;;;;;-2.94;80.84;99639.72;4795396;29;102725;-67
2023/02/28 03:03:32;;;;;;;;;20.00;17.00;;;;;-2.92;81.52;99640.47;4797581;29;102181;-67
2023/02/28 03:06:01;;;;;;;;;19.67;17.00;;;;;-2.91;81.01;99641.31;4778627;29;104001;-67
2023/02/28 03:08:33;;;;;;;;;16.33;13.67;;;;;-2.92;80.96;99651.06;4796427;29;102999;-67
2023/02/28 03:11:04;;;;;;;;;14.33;14.00;;;;;-2.93;81.08;99645.88;4784742;29;102719;-67
2023/02/28 03:13:46;;;;;;;;;23.00;21.33;;;;;-3.00;80.61;99648.00;4791548;29;102515;-67
2023/02/28 03:16:23;;;;;;;;;30.67;24.33;;;;;-3.08;80.96;99647.63;4793618;29;104044;-66
2023/02/28 03:18:59;;;;;;;;;29.67;23.67;;;;;-3.08;82.12;99647.63;4799022;29;102254;-66
2023/02/28 03:21:45;;;;;;;;;19.00;17.00;;;;;-3.06;82.88;99652.84;4797102;29;102476;-67
2023/02/28 03:24:23;;;;;;;;;21.00;17.33;;;;;-3.08;82.10;99652.91;4796920;29;102534;-67
2023/02/28 03:27:01;;;;;;;;;21.00;16.67;;;;;-3.15;83.39;99652.41;4789829;29;104309;-67
2023/02/28 03:29:32;;;;;;;;;23.00;18.67;;;;;-3.17;82.77;99651.66;4798725;29;102493;-66
2023/02/28 03:32:33;;;;;;;;;22.33;17.00;;;;;-3.18;82.87;99657.03;4799320;29;102198;-66
2023/02/28 03:35:21;;;;;;;;;20.67;18.33;;;;;-3.22;84.05;99640.50;4797048;29;102411;-68
2023/02/28 03:37:55;;;;;;;;;18.33;12.33;;;;;-3.17;83.47;99656.94;4793096;29;104098;-68
2023/02/28 03:40:27;;;;;;;;;22.67;18.33;;;;;-3.14;83.48;99663.84;4791632;29;102782;-67
2023/02/28 03:43:02;;;;;;;;;22.33;16.00;;;;;-3.15;85.09;99657.69;4787917;29;104499;-68
2023/02/28 03:45:35;;;;;;;;;20.00;19.00;;;;;-3.19;84.68;99657.97;4797406;29;102512;-67
2023/02/28 03:48:13;;;;;;;;;24.67;21.67;;;;;-3.18;83.85;99657.03;4797488;29;109131;-68
2023/02/28 03:50:44;;;;;;;;;21.67;16.67;;;;;-3.19;85.56;99657.97;4785261;29;102703;-68
2023/02/28 03:53:14;;;;;;;;;22.33;16.00;;;;;-3.19;85.75;99660.59;4793679;29;102240;-68
2023/02/28 03:55:48;;;;;;;;;19.33;14.67;;;;;-3.17;85.39;99669.31;4792876;29;102284;-68
2023/02/28 03:58:21;;;;;;;;;22.67;17.00;;;;;-3.20;85.93;99665.03;4780969;29;103975;-67
2023/02/28 04:00:57;;;;;;;;;7.67;7.00;;;;;-3.22;85.55;99660.78;4781261;29;102394;-67
2023/02/28 04:03:24;;;;;;;;;16.67;12.33;;;;;-3.25;85.03;99672.41;4779751;29;103273;-69
2023/02/28 04:05:56;;;;;;;;;17.67;17.67;;;;;-3.30;85.03;99674.47;4791795;29;102435;-68
2023/02/28 04:08:23;;;;;;;;;16.67;11.00;;;;;-3.27;85.27;99670.78;4797164;29;103957;-68
2023/02/28 04:11:03;;;;;;;;;17.33;10.67;;;;;-3.32;85.52;99649.03;4792226;29;103107;-68
2023/02/28 04:13:30;;;;;;;;;20.33;15.33;;;;;-3.30;85.43;99676.25;4793985;29;102009;-69
2023/02/28 04:15:57;;;;;;;;;11.00;8.00;;;;;-3.33;86.06;99668.50;4801331;29;101972;-68
2023/02/28 04:18:27;;;;;;;;;15.00;12.67;;;;;-3.35;85.63;99673.03;4793314;29;103725;-68
2023/02/28 04:20:54;;;;;;;;;16.67;16.00;;;;;-3.37;85.96;99677.53;4798163;29;102346;-68
2023/02/28 04:23:21;;;;;;;;;13.00;10.67;;;;;-3.37;86.16;99680.16;4797814;29;102329;-68
2023/02/28 04:25:50;;;;;;;;;10.00;8.00;;;;;-3.37;86.72;99688.09;4800731;29;102481;-68
2023/02/28 04:28:17;;;;;;;;;18.67;12.00;;;;;-3.40;85.61;99683.00;4796660;29;104253;-68
2023/02/28 04:30:44;;;;;;;;;18.33;16.67;;;;;-3.43;85.67;99683.19;4798970;29;103007;-68
2023/02/28 04:33:11;;;;;;;;;17.33;15.00;;;;;-3.55;86.12;99682.06;4782495;29;101960;-68
2023/02/28 04:35:38;;;;;;;;;16.00;14.67;;;;;-3.63;86.76;99671.94;4797546;29;102327;-68
2023/02/28 04:38:05;;;;;;;;;14.00;13.33;;;;;-3.51;86.93;99701.28;4798385;29;104100;-69
2023/02/28 04:40:32;;;;;;;;;17.67;16.00;;;;;-3.53;86.14;99701.34;4799710;29;102388;-69
2023/02/28 04:42:59;;;;;;;;;21.00;19.00;;;;;-3.55;86.86;99705.00;4801197;29;102472;-68
2023/02/28 04:45:29;;;;;;;;;23.33;19.00;;;;;-3.55;87.03;99694.44;4799526;29;102353;-68
2023/02/28 04:47:56;;;;;;;;;14.00;13.33;;;;;-3.53;87.57;99703.13;4799779;29;109112;-69
2023/02/28 04:50:24;;;;;;;;;13.00;12.00;;;;;-3.49;87.21;99699.38;4798481;29;102430;-69
2023/02/28 04:52:51;;;;;;;;;17.33;15.33;;;;;-3.49;87.64;99702.88;4798834;29;102049;-69
2023/02/28 04:55:18;;;;;;;;;20.33;18.00;;;;;-3.60;86.98;99684.97;4803243;29;102239;-69
2023/02/28 04:57:45;;;;;;;;;19.00;16.67;;;;;-3.51;87.17;99702.09;4799682;29;103628;-70
2023/02/28 05:00:15;;;;;;;;;28.33;22.67;;;;;-3.49;88.46;99694.94;4780767;29;102452;-70
2023/02/28 05:02:42;;;;;;;;;25.00;18.33;;;;;-3.51;87.67;99707.38;4799371;29;101947;-69
2023/02/28 05:05:09;;;;;;;;;24.00;18.33;;;;;-3.52;87.71;99700.41;4798385;29;101948;-69
2023/02/28 05:07:36;;;;;;;;;33.67;28.67;;;;;-3.55;87.07;99699.72;4796882;29;103917;-70
2023/02/28 05:10:03;;;;;;;;;25.00;22.00;;;;;-3.54;87.35;99701.44;4797080;29;104853;-69
2023/02/28 05:12:32;;;;;;;;;32.67;26.33;;;;;-3.60;88.23;99702.63;4800655;29;102338;-70
2023/02/28 05:14:58;;;;;;;;;38.33;31.00;;;;;-3.63;88.07;99701.00;4800782;29;102086;-70
2023/02/28 05:17:25;;;;;;;;;24.67;22.00;;;;;-3.64;88.85;99701.94;4800517;29;104033;-69
2023/02/28 05:19:52;;;;;;;;;27.33;23.33;;;;;-3.67;88.88;99699.47;4799811;29;102173;-70
2023/02/28 05:22:26;;;;;;;;;33.33;27.33;;;;;-3.68;89.35;99703.06;4800330;29;102356;-70
2023/02/28 05:24:53;;;;;;;;;33.33;25.00;;;;;-3.69;89.14;99701.34;4802950;29;102607;-69
2023/02/28 05:27:20;;;;;;;;;18.67;16.67;;;;;-3.69;89.20;99703.97;4797411;29;104031;-69
2023/02/28 05:29:47;;;;;;;;;41.00;27.33;;;;;-3.73;88.44;99713.03;4795115;29;102940;-70
2023/02/28 05:32:14;;;;;;;;;36.00;26.67;;;;;-3.75;88.71;99714.06;4797002;29;102166;-69
2023/02/28 05:34:41;;;;;;;;;46.25;37.00;;;;;-3.81;88.96;99704.66;4795193;29;102179;-69
2023/02/28 05:37:12;;;;;;;;;34.67;19.67;;;;;-3.78;90.23;99712.41;4798275;29;103998;-70
2023/02/28 05:39:39;;;;;;;;;40.00;27.00;;;;;-3.76;89.73;99722.91;4798463;29;102298;-69
2023/02/28 05:42:07;;;;;;;;;30.50;24.50;;;;;-3.84;89.15;99714.56;4798136;29;102367;-70
2023/02/28 05:44:34;;;;;;;;;32.67;25.00;;;;;-3.76;89.23;99723.78;4795626;29;102398;-69
2023/02/28 05:47:01;;;;;;;;;41.67;31.67;;;;;-3.79;88.76;99729.22;4802696;29;104022;-68
2023/02/28 05:49:28;;;;;;;;;38.33;28.00;;;;;-3.81;90.31;99727.59;4798270;29;103109;-68
2023/02/28 05:51:55;;;;;;;;;27.67;22.00;;;;;-3.78;89.43;99736.19;4795295;29;102606;-70
2023/02/28 05:54:22;;;;;;;;;30.33;25.67;;;;;-3.84;90.03;99736.56;4798100;29;102984;-68
2023/02/28 05:56:49;;;;;;;;;37.00;29.33;;;;;-3.81;89.46;99743.44;4797345;29;104050;-69
2023/02/28 05:59:16;;;;;;;;;38.75;30.25;;;;;-3.83;89.37;99740.91;4797631;29;102465;-69
2023/02/28 06:01:47;;;;;;;;;40.00;32.00;;;;;-3.83;90.23;99740.91;4795561;29;102169;-68
2023/02/28 06:04:18;;;;;;;;;34.00;27.00;;;;;-3.78;90.38;99741.47;4796903;29;102390;-69
2023/02/28 06:06:58;;;;;;;;;44.00;35.00;;;;;-3.77;90.17;99747.63;4796624;29;104147;-69
2023/02/28 06:09:25;;;;;;;;;40.00;34.00;;;;;-3.78;89.91;99744.13;4798433;29;102466;-69
2023/02/28 06:11:52;;;;;;;;;37.50;33.75;;;;;-3.78;89.65;99741.47;4798248;29;102553;-69
2023/02/28 06:14:20;;;;;;;;;48.00;40.50;;;;;-3.76;90.00;99749.34;4798766;29;101997;-70
2023/02/28 06:16:47;;;;;;;;;39.00;33.25;;;;;-3.81;89.10;99743.44;4796336;29;104239;-70
2023/02/28 06:19:15;;;;;;;;;47.75;42.50;;;;;-3.80;90.06;99747.78;4795501;29;105060;-69
2023/02/28 06:21:42;;;;;;;;;54.75;43.25;;;;;-3.68;89.34;99758.53;4792444;29;102037;-68
2023/02/28 06:24:10;;;;;;;;;48.75;40.50;;;;;-3.63;89.17;99760.94;4792787;29;110320;-69
2023/02/28 06:26:36;;;;;;;;;42.00;34.50;;;;;-3.57;89.47;99760.63;4793974;29;103722;-69
2023/02/28 06:29:03;;;;;;;;;47.50;39.50;;;;;-3.71;89.42;99747.28;4799408;29;102301;-69
2023/02/28 06:31:30;;;;;;;;;41.50;35.50;;;;;-3.47;89.95;99763.59;4797588;29;102398;-70
2023/02/28 06:33:58;;;;;;;;;41.50;30.50;;;;;-3.38;88.94;99765.75;4794902;29;102535;-69
2023/02/28 06:36:25;;;;;;;;;47.00;39.33;;;;;-3.33;88.74;99767.16;4797395;29;104055;-69
2023/02/28 06:38:54;;;;;;;;;48.00;39.00;;;;;-3.30;88.74;99769.66;4797939;29;102776;-69
2023/02/28 06:41:26;;;;;;;;;48.75;39.50;;;;;-3.22;88.25;99772.72;4799061;29;102451;-69
2023/02/28 06:43:54;;;;;;;;;56.50;44.25;;;;;-3.20;88.34;99765.53;4795149;29;102242;-68
2023/02/28 06:46:21;;;;;;;;;55.00;46.00;;;;;-3.13;86.79;99765.19;4796308;29;104026;-68
2023/02/28 06:48:49;;;;;;;;;50.50;41.75;;;;;-3.12;88.46;99751.03;4797570;29;102419;-69
2023/02/28 06:51:24;;;;;;;;;54.50;44.00;;;;;-2.96;86.46;99768.59;4797647;29;102137;-69
2023/02/28 06:53:51;;;;;;;;;52.50;39.25;;;;;-2.94;86.84;99761.44;4794401;29;102390;-69
2023/02/28 06:56:20;;;;;;;;;52.25;41.00;;;;;-2.90;86.68;99768.25;4794287;29;104207;-69
2023/02/28 06:58:48;;;;;;;;;50.75;43.50;;;;;-2.91;85.51;99774.47;4794906;29;102295;-68
2023/02/28 07:01:16;;;;;;;;;46.25;40.25;;;;;-2.79;86.42;99772.91;4799391;29;102296;-69
2023/02/28 07:03:43;;;;;;;;;53.75;45.00;;;;;-2.75;85.84;99777.94;4799940;29;102352;-68
2023/02/28 07:06:10;;;;;;;;;46.67;40.33;;;;;-2.70;85.39;99775.88;4798129;29;104045;-69
2023/02/28 07:08:37;;;;;;;;;43.75;36.00;;;;;-2.67;85.43;99785.44;4799735;29;102326;-69
2023/02/28 07:11:04;;;;;;;;;46.00;38.75;;;;;-2.53;84.96;99782.84;4800576;29;102572;-70
2023/02/28 07:13:31;;;;;;;;;45.67;31.33;;;;;-2.41;83.52;99781.25;4798712;29;102561;-70
2023/02/28 07:16:01;;;;;;;;;40.67;37.00;;;;;-2.45;83.54;99759.41;4795551;29;103904;-72
2023/02/28 07:18:28;;;;;;;;;39.00;29.00;;;;;-2.29;82.24;99768.13;4797345;29;102988;-70
2023/02/28 07:20:55;;;;;;;;;54.67;40.00;;;;;-2.14;81.59;99787.56;4799680;29;102238;-71
2023/02/28 07:23:23;;;;;;;;;52.00;41.33;;;;;-2.09;81.14;99788.13;4786249;29;102571;-70
2023/02/28 07:25:51;;;;;;;;;49.33;39.33;;;;;-1.96;81.92;99788.25;4783999;29;104037;-70
2023/02/28 07:28:18;;;;;;;;;46.00;35.00;;;;;-1.88;80.50;99781.53;4796893;29;102498;-70
2023/02/28 07:30:45;;;;;;;;;53.33;38.33;;;;;-2.20;80.38;99732.28;4796499;29;102206;-71
2023/02/28 07:33:12;;;;;;;;;42.00;34.67;;;;;-1.82;80.11;99788.25;4800177;29;102213;-70
2023/02/28 07:35:39;;;;;;;;;49.67;39.33;;;;;-1.85;77.40;99791.09;4797739;29;103517;-70
2023/02/28 07:38:07;;;;;;;;;34.67;29.33;;;;;-1.75;78.27;99784.25;4798164;29;102251;-70
2023/02/28 07:40:35;;;;;;;;;34.67;27.33;;;;;-1.64;77.87;99788.91;4796944;29;103117;-70
2023/02/28 07:43:05;;;;;;;;;42.00;35.33;;;;;-1.84;77.92;99755.66;4796282;29;104312;-70
2023/02/28 07:45:34;;;;;;;;;41.00;33.00;;;;;-1.65;77.22;99776.59;4797895;29;108570;-70
2023/02/28 07:48:01;;;;;;;;;43.00;35.67;;;;;-1.58;76.04;99799.16;4798453;29;102467;-70
2023/02/28 07:50:30;;;;;;;;;41.67;34.00;;;;;-1.60;76.81;99791.28;4797790;29;102161;-70
2023/02/28 07:52:58;;;;;;;;;45.67;36.33;;;;;-1.76;76.61;99776.44;4800565;29;103748;-70
2023/02/28 07:55:26;;;;;;;;;36.00;31.67;;;;;-1.66;76.42;99788.13;4799440;29;104203;-70
2023/02/28 07:57:53;;;;;;;;;40.33;35.67;;;;;-1.69;75.90;99791.84;4800148;29;102372;-70
2023/02/28 08:00:21;;;;;;;;;46.00;39.67;;;;;-1.63;75.72;99796.78;4802682;29;102466;-70
2023/02/28 08:02:48;;;;;;;;;38.00;33.67;;;;;-1.61;74.42;99794.00;4802247;29;102591;-70
2023/02/28 08:05:15;;;;;;;;;38.33;29.33;;;;;-1.48;75.08;99797.59;4800793;29;104008;-70
2023/02/28 08:07:42;;;;;;;;;48.33;38.00;;;;;-1.55;75.71;99796.28;4797843;29;102418;-70
2023/02/28 08:10:10;;;;;;;;;30.67;26.00;;;;;-1.44;75.88;99791.19;4802414;29;102974;-70
2023/02/28 08:12:37;;;;;;;;;28.00;24.33;;;;;-1.35;75.32;99785.25;4802393;29;102344;-70
2023/02/28 08:15:04;;;;;;;;;49.67;33.67;;;;;-1.24;73.35;99784.59;4802711;29;104019;-70
2023/02/28 08:17:31;;;;;;;;;32.67;29.33;;;;;-1.26;73.55;99779.38;4801845;29;102328;-70
2023/02/28 08:20:00;;;;;;;;;27.00;25.33;;;;;-1.10;73.16;99785.41;4785706;29;102068;-71
2023/02/28 08:22:27;;;;;;;;;37.00;33.67;;;;;-1.06;74.45;99792.22;4802246;29;103728;-71
2023/02/28 08:24:54;;;;;;;;;24.33;22.00;;;;;-0.91;71.67;99791.25;4801319;29;110639;-70
2023/02/28 08:27:21;;;;;;;;;45.00;30.33;;;;;-0.83;71.22;99795.19;4801506;29;102342;-70
2023/02/28 08:29:48;;;;;;;;;32.00;29.33;;;;;-0.80;70.93;99792.31;4801272;29;102375;-70
2023/02/28 08:32:15;;;;;;;;;32.00;25.33;;;;;-0.83;69.69;99787.22;4803973;29;102405;-69
2023/02/28 08:34:55;;;;;;;;;38.00;32.33;;;;;-0.83;69.79;99790.72;4799982;29;104087;-70
2023/02/28 08:37:22;;;;;;;;;26.00;24.00;;;;;-0.60;69.68;99787.41;4801407;29;102805;-70
2023/02/28 08:39:49;;;;;;;;;29.33;22.00;;;;;-0.48;67.78;99788.41;4799555;29;102155;-70
2023/02/28 08:42:16;;;;;;;;;44.67;31.67;;;;;-0.57;67.61;99787.22;4803146;29;102054;-70
2023/02/28 08:44:43;;;;;;;;;40.67;33.67;;;;;-0.56;67.68;99796.88;4801595;29;104011;-70
2023/02/28 08:47:10;;;;;;;;;35.67;31.00;;;;;-0.54;66.95;99789.66;4802351;29;102420;-70
2023/02/28 08:49:37;;;;;;;;;31.00;27.33;;;;;-0.51;66.69;99786.81;4801312;29;102082;-70
2023/02/28 08:52:04;;;;;;;;;38.00;32.33;;;;;-0.43;65.12;99791.59;4802440;29;102288;-70
2023/02/28 08:54:33;;;;;;;;;30.00;26.67;;;;;-0.50;63.56;99796.50;4798438;29;108215;-70
2023/02/28 08:57:00;;;;;;;;;21.33;19.00;;;;;-0.34;64.44;99785.66;4801565;29;102373;-70
2023/02/28 08:59:28;;;;;;;;;20.00;18.33;;;;;0.00;65.85;99794.88;4800738;29;103516;-71
2023/02/28 09:01:55;;;;;;;;;36.00;28.00;;;;;0.04;63.94;99795.50;4802288;29;102723;-71
2023/02/28 09:04:22;;;;;;;;;39.33;31.00;;;;;0.05;62.99;99802.50;4799324;29;103659;-71
2023/02/28 09:06:51;;;;;;;;;33.33;28.00;;;;;0.26;63.59;99793.06;4802408;29;102400;-72
2023/02/28 09:09:18;;;;;;;;;35.00;27.00;;;;;0.56;62.91;99803.34;4802001;29;102381;-71
2023/02/28 09:11:45;;;;;;;;;29.67;21.67;;;;;0.73;63.17;99801.16;4801645;29;104335;-70
2023/02/28 09:14:12;;;;;;;;;27.33;22.33;;;;;0.97;60.29;99795.03;4797249;29;104659;-72
2023/02/28 09:16:39;;;;;;;;;28.33;22.33;;;;;0.94;60.45;99801.47;4801832;29;102547;-71
2023/02/28 09:19:11;;;;;;;;;35.67;28.67;;;;;0.74;62.28;99791.38;4800546;29;102098;-71
2023/02/28 09:21:38;;;;;;;;;26.00;22.33;;;;;0.67;60.20;99796.31;4802678;29;102471;-71
2023/02/28 09:24:06;;;;;;;;;20.67;17.00;;;;;0.74;60.03;99797.56;4797286;29;104221;-71
2023/02/28 09:26:34;;;;;;;;;29.67;25.00;;;;;0.73;59.72;99806.50;4803250;29;102272;-70
2023/02/28 09:29:09;;;;;;;;;29.33;23.00;;;;;0.98;60.15;99800.28;4797620;29;102283;-71
2023/02/28 09:31:36;;;;;;;;;23.67;20.33;;;;;0.84;60.01;99798.59;4801833;29;102083;-71
2023/02/28 09:34:04;;;;;;;;;27.33;23.00;;;;;0.36;61.86;99792.28;4804010;29;104120;-70
2023/02/28 09:36:33;;;;;;;;;31.67;26.67;;;;;0.20;61.18;99790.81;4800630;29;102535;-71
2023/02/28 09:39:12;;;;;;;;;25.67;23.33;;;;;0.42;61.76;99796.31;4787016;29;102519;-70
2023/02/28 09:41:50;;;;;;;;;36.33;29.67;;;;;0.35;63.00;99790.59;4801723;29;102544;-71
2023/02/28 09:44:42;;;;;;;;;32.00;25.67;;;;;0.31;61.68;99798.91;4798892;29;104064;-71
2023/02/28 09:47:34;;;;;;;;;26.00;23.33;;;;;0.48;63.70;99801.22;4797070;29;102137;-71
2023/02/28 09:50:35;;;;;;;;;20.67;20.00;;;;;0.52;62.66;99808.03;4800997;29;102360;-70
2023/02/28 09:53:14;;;;;;;;;26.33;19.67;;;;;0.76;60.98;99793.00;4799860;29;102283;-70
2023/02/28 09:55:54;;;;;;;;;32.67;28.33;;;;;0.62;60.37;99809.09;4796095;29;109006;-70
2023/02/28 09:58:49;;;;;;;;;30.00;25.00;;;;;0.77;60.36;99800.00;4798828;29;102156;-69
2023/02/28 10:01:30;;;;;;;;;24.67;22.33;;;;;0.87;59.66;99802.84;4798218;29;101955;-70
2023/02/28 10:04:00;;;;;;;;;20.67;16.33;;;;;1.30;60.20;99805.91;4801036;29;103775;-70
2023/02/28 10:06:41;;;;;;;;;29.67;25.00;;;;;1.33;57.93;99798.53;4799281;29;104040;-70
2023/02/28 10:09:15;;;;;;;;;19.33;18.00;;;;;1.66;58.23;99802.31;4795765;29;103850;-69
2023/02/28 10:11:45;;;;;;;;;25.67;21.67;;;;;1.65;57.02;99784.63;4799499;29;102311;-70
2023/02/28 10:14:17;;;;;;;;;30.00;23.67;;;;;1.96;54.85;99794.66;4786940;29;102242;-70
2023/02/28 10:17:17;;;;;;;;;23.00;18.00;;;;;2.16;56.05;99801.13;4798290;29;103691;-70
2023/02/28 10:20:00;;;;;;;;;26.25;21.25;;;;;1.96;54.94;99793.78;4794194;29;102283;-70
2023/02/28 10:22:42;;;;;;;;;21.00;18.67;;;;;2.42;56.68;99801.75;4798537;29;102072;-70
2023/02/28 10:25:22;;;;;;;;;23.75;22.00;;;;;2.85;55.42;99784.00;4790496;29;110982;-70
2023/02/28 10:27:53;;;;;;;;;20.00;20.00;;;;;2.98;55.51;99773.19;4798170;29;104309;-69
2023/02/28 10:30:20;;;;;;;;;16.75;15.50;;;;;3.14;53.60;99769.16;4799188;29;102520;-69
2023/02/28 10:32:55;;;;;;;;;22.25;17.75;;;;;2.64;53.15;99751.88;4799084;29;102410;-69
2023/02/28 10:35:25;;;;;;;;;28.00;22.50;;;;;2.81;55.20;99771.03;4799485;29;102923;-69
2023/02/28 10:38:01;;;;;;;;;26.75;24.25;;;;;2.93;53.44;99764.69;4794511;29;104343;-69
2023/02/28 10:40:37;;;;;;;;;38.25;28.00;;;;;2.28;54.51;99772.63;4796297;29;102531;-70
2023/02/28 10:43:13;;;;;;;;;24.00;23.00;;;;;2.26;54.89;99764.72;4793611;29;102242;-72
2023/02/28 10:45:55;;;;;;;;;31.75;20.25;;;;;2.22;54.53;99768.59;4794181;29;102509;-69
2023/02/28 10:48:22;;;;;;;;;30.75;24.50;;;;;2.14;53.94;99765.69;4796944;29;103996;-70
2023/02/28 10:50:52;;;;;;;;;28.00;26.25;;;;;1.67;56.69;99764.84;4796570;29;102631;-70
2023/02/28 10:53:22;;;;;;;;;33.50;28.50;;;;;1.77;59.68;99762.34;4796483;29;102098;-69
2023/02/28 10:56:25;;;;;;;;;27.67;25.67;;;;;1.85;56.52;99764.44;4796677;29;102376;-70
2023/02/28 10:59:01;;;;;;;;;25.00;19.25;;;;;1.80;54.81;99754.94;4793391;29;108971;-70
2023/02/28 11:01:48;;;;;;;;;26.00;24.75;;;;;1.75;57.10;99754.47;4799791;29;102780;-69
2023/02/28 11:04:22;;;;;;;;;29.67;24.00;;;;;1.78;56.62;99743.56;4793975;29;102530;-69
2023/02/28 11:07:00;;;;;;;;;31.00;22.75;;;;;1.57;55.45;99749.69;4796421;29;102526;-69
2023/02/28 11:09:34;;;;;;;;;34.67;25.00;;;;;1.41;58.99;99755.31;4798564;29;103744;-71
2023/02/28 11:12:08;;;;;;;;;27.33;24.67;;;;;1.41;60.49;99736.66;4799639;29;102241;-69
2023/02/28 11:15:04;;;;;;;;;32.33;23.33;;;;;1.90;57.06;99746.25;4795610;29;102103;-69
2023/02/28 11:17:33;;;;;;;;;27.00;23.00;;;;;1.81;57.53;99726.47;4796662;29;102336;-69
2023/02/28 11:20:07;;;;;;;;;30.33;29.33;;;;;1.99;58.90;99740.19;4780627;29;103799;-69
2023/02/28 11:22:38;;;;;;;;;24.25;18.75;;;;;1.96;57.71;99716.44;4796201;29;102385;-70
2023/02/28 11:25:30;;;;;;;;;21.75;17.25;;;;;2.06;54.71;99733.44;4797873;29;102728;-70
2023/02/28 11:28:06;;;;;;;;;22.75;17.00;;;;;2.31;55.34;99729.69;4798260;29;102191;-70
2023/02/28 11:30:39;;;;;;;;;19.50;17.00;;;;;2.26;55.34;99727.38;4801006;29;108873;-70
2023/02/28 11:33:30;;;;;;;;;16.00;15.00;;;;;2.48;54.09;99722.03;4799553;29;104409;-71
2023/02/28 11:36:04;;;;;;;;;18.50;15.50;;;;;2.31;52.93;99727.00;4800660;29;102581;-70